createdAt,value
2018-08-13T00:01:05.492Z,1.80
2018-08-13T00:04:02.476Z,2.50
2018-08-13T00:06:59.637Z,2.17
2018-08-13T00:09:57.668Z,2.20
2018-08-13T00:12:55.024Z,2.07
2018-08-13T00:15:52.867Z,2.20
2018-08-13T00:18:50.256Z,2.07
2018-08-13T00:21:48.316Z,2.00
2018-08-13T00:24:46.223Z,2.03
2018-08-13T00:27:43.345Z,1.80
2018-08-13T00:30:41.240Z,2.23
2018-08-13T00:33:38.463Z,2.00
2018-08-13T00:36:35.854Z,2.00
2018-08-13T00:39:32.872Z,2.10
2018-08-13T00:42:30.058Z,1.70
2018-08-13T00:45:29.077Z,1.70
2018-08-13T00:48:26.490Z,1.73
2018-08-13T00:51:24.594Z,2.20
2018-08-13T00:54:23.784Z,2.87
2018-08-13T00:57:21.342Z,2.10
2018-08-13T01:00:20.439Z,2.23
2018-08-13T01:03:19.555Z,2.00
2018-08-13T01:06:16.815Z,2.30
2018-08-13T01:09:13.891Z,2.20
2018-08-13T01:12:11.748Z,1.93
2018-08-13T01:15:09.739Z,2.40
2018-08-13T01:18:06.828Z,2.50
2018-08-13T01:21:04.241Z,2.30
2018-08-13T01:24:01.349Z,2.13
2018-08-13T01:26:58.348Z,2.20
2018-08-13T01:29:56.392Z,2.30
2018-08-13T01:32:53.641Z,2.20
2018-08-13T01:35:51.830Z,2.17
2018-08-13T01:38:49.816Z,2.33
2018-08-13T01:41:47.786Z,2.40
2018-08-13T01:44:45.240Z,2.30
2018-08-13T01:47:42.663Z,2.40
2018-08-13T01:50:40.467Z,2.13
2018-08-13T01:53:38.544Z,2.27
2018-08-13T01:56:36.420Z,2.50
2018-08-13T01:59:33.571Z,2.00
2018-08-13T02:02:31.565Z,2.30
2018-08-13T02:05:29.315Z,2.10
2018-08-13T02:08:26.518Z,2.70
2018-08-13T02:11:24.460Z,2.50
2018-08-13T02:14:22.287Z,2.20
2018-08-13T02:17:19.459Z,2.27
2018-08-13T02:20:16.639Z,2.00
2018-08-13T02:23:13.997Z,1.80
2018-08-13T02:26:11.356Z,1.93
2018-08-13T02:29:08.631Z,1.90
2018-08-13T02:32:06.687Z,2.43
2018-08-13T02:35:04.605Z,2.23
2018-08-13T02:38:02.768Z,1.87
2018-08-13T02:40:59.951Z,2.30
2018-08-13T02:43:57.154Z,2.17
2018-08-13T02:46:54.589Z,2.03
2018-08-13T02:49:51.971Z,2.23
2018-08-13T02:52:49.175Z,2.27
2018-08-13T02:55:46.412Z,2.20
2018-08-13T02:58:44.572Z,2.57
2018-08-13T03:01:41.998Z,2.63
2018-08-13T03:04:40.148Z,2.20
2018-08-13T03:07:38.087Z,2.13
2018-08-13T03:10:35.930Z,2.37
2018-08-13T03:13:33.727Z,2.40
2018-08-13T03:16:31.571Z,2.63
2018-08-13T03:19:29.472Z,2.57
2018-08-13T03:22:27.544Z,2.80
2018-08-13T03:25:25.410Z,2.80
2018-08-13T03:28:23.591Z,2.97
2018-08-13T03:31:21.575Z,2.90
2018-08-13T03:34:18.653Z,2.57
2018-08-13T03:37:15.846Z,3.50
2018-08-13T03:40:13.038Z,3.30
2018-08-13T03:43:10.113Z,3.43
2018-08-13T03:46:08.048Z,3.17
2018-08-13T03:49:05.308Z,3.20
2018-08-13T03:52:02.351Z,3.43
2018-08-13T03:55:00.058Z,3.23
2018-08-13T03:57:57.773Z,3.57
2018-08-13T04:00:54.958Z,3.60
2018-08-13T04:03:53.063Z,4.27
2018-08-13T04:06:51.066Z,4.13
2018-08-13T04:09:51.127Z,5.03
2018-08-13T04:12:50.262Z,5.03
2018-08-13T04:15:47.372Z,5.30
2018-08-13T04:18:44.861Z,5.73
2018-08-13T04:21:41.883Z,5.63
2018-08-13T04:24:39.171Z,5.87
2018-08-13T04:27:36.400Z,5.80
2018-08-13T04:30:35.422Z,6.07
2018-08-13T04:33:33.259Z,5.80
2018-08-13T04:36:30.395Z,5.50
2018-08-13T04:39:30.552Z,5.97
2018-08-13T04:42:28.739Z,6.47
2018-08-13T04:45:27.562Z,6.67
2018-08-13T04:48:24.516Z,6.37
2018-08-13T04:51:22.157Z,6.53
2018-08-13T04:54:19.644Z,7.10
2018-08-13T04:57:17.202Z,6.53
2018-08-13T05:00:14.267Z,7.00
2018-08-13T05:03:11.983Z,6.60
2018-08-13T05:06:09.981Z,7.30
2018-08-13T05:09:08.027Z,6.27
2018-08-13T05:12:06.020Z,6.70
2018-08-13T05:15:03.112Z,7.00
2018-08-13T05:18:01.115Z,6.53
2018-08-13T05:20:58.298Z,7.30
2018-08-13T05:23:56.265Z,6.67
2018-08-13T05:26:53.331Z,6.67
2018-08-13T05:29:50.571Z,6.30
2018-08-13T05:32:48.760Z,6.73
2018-08-13T05:35:46.700Z,6.03
2018-08-13T05:38:44.736Z,6.67
2018-08-13T05:41:41.902Z,6.47
2018-08-13T05:44:39.847Z,5.87
2018-08-13T05:47:37.931Z,6.40
2018-08-13T05:50:35.364Z,7.10
2018-08-13T05:53:32.530Z,7.20
2018-08-13T05:56:30.325Z,6.90
2018-08-13T05:59:28.175Z,6.40
2018-08-13T06:02:25.547Z,7.10
2018-08-13T06:05:23.100Z,6.63
2018-08-13T06:08:21.394Z,6.57
2018-08-13T06:11:18.794Z,6.50
2018-08-13T06:14:16.815Z,5.90
2018-08-13T06:17:15.019Z,5.40
2018-08-13T06:20:12.347Z,4.40
2018-08-13T06:23:09.418Z,4.77
2018-08-13T06:26:06.500Z,5.57
2018-08-13T06:29:03.444Z,5.37
2018-08-13T06:32:00.747Z,5.00
2018-08-13T06:34:58.486Z,5.17
2018-08-13T06:37:55.684Z,5.30
2018-08-13T06:40:53.727Z,5.00
2018-08-13T06:43:51.678Z,5.40
2018-08-13T06:46:49.708Z,5.20
2018-08-13T06:49:46.884Z,5.07
2018-08-13T06:52:44.860Z,5.30
2018-08-13T06:55:42.978Z,5.33
2018-08-13T06:58:40.855Z,4.57
2018-08-13T07:01:38.177Z,4.87
2018-08-13T07:04:37.164Z,5.03
2018-08-13T07:07:34.539Z,5.00
2018-08-13T07:10:32.438Z,4.80
2018-08-13T07:13:30.232Z,2.70
2018-08-13T07:16:28.308Z,2.10
2018-08-13T07:19:25.462Z,1.77
2018-08-13T07:22:23.528Z,2.00
2018-08-13T07:25:20.843Z,2.10
2018-08-13T07:28:17.988Z,2.20
2018-08-13T07:31:15.153Z,2.03
2018-08-13T07:34:12.393Z,1.90
2018-08-13T07:37:09.943Z,2.00
2018-08-13T07:40:08.152Z,2.10
2018-08-13T07:43:05.707Z,1.53
2018-08-13T07:46:03.244Z,1.87
2018-08-13T07:49:00.597Z,1.90
2018-08-13T07:51:57.653Z,1.80
2018-08-13T07:54:54.916Z,1.90
2018-08-13T07:57:52.687Z,1.67
2018-08-13T08:00:49.748Z,2.10
2018-08-13T08:03:46.958Z,2.37
2018-08-13T08:06:44.860Z,2.53
2018-08-13T08:09:43.759Z,2.27
2018-08-13T08:12:41.763Z,2.00
2018-08-13T08:15:40.956Z,2.77
2018-08-13T08:18:40.131Z,2.47
2018-08-13T08:21:37.160Z,2.20
2018-08-13T08:24:34.239Z,2.30
2018-08-13T08:27:31.396Z,2.60
2018-08-13T08:30:29.587Z,2.60
2018-08-13T08:33:26.939Z,2.60
2018-08-13T08:36:24.518Z,2.87
2018-08-13T08:39:23.476Z,3.00
2018-08-13T08:42:20.988Z,2.40
2018-08-13T08:45:21.017Z,2.47
2018-08-13T08:48:18.276Z,2.10
2018-08-13T08:51:15.607Z,2.60
2018-08-13T08:54:14.185Z,3.03
2018-08-13T08:57:12.203Z,2.47
2018-08-13T09:00:10.176Z,2.70
2018-08-13T09:03:07.803Z,2.33
2018-08-13T09:06:04.986Z,2.40
2018-08-13T09:09:03.129Z,2.93
2018-08-13T09:12:00.375Z,2.90
2018-08-13T09:14:57.807Z,2.53
2018-08-13T09:18:07.917Z,2.43
2018-08-13T09:21:18.219Z,2.27
2018-08-13T09:24:28.191Z,2.00
2018-08-13T09:27:37.918Z,2.73
2018-08-13T09:30:48.135Z,3.40
2018-08-13T09:33:57.611Z,2.40
2018-08-13T09:36:55.088Z,2.77
2018-08-13T09:39:52.337Z,3.10
2018-08-13T09:42:50.287Z,3.20
2018-08-13T09:45:55.401Z,2.63
2018-08-13T09:48:53.328Z,2.80
2018-08-13T09:51:51.049Z,3.30
2018-08-13T09:54:48.248Z,2.60
2018-08-13T09:57:46.030Z,2.33
2018-08-13T10:00:49.223Z,2.50
2018-08-13T10:03:47.312Z,2.37
2018-08-13T10:06:45.471Z,2.60
2018-08-13T10:09:43.405Z,2.47
2018-08-13T10:12:41.446Z,2.00
2018-08-13T10:15:39.471Z,2.50
2018-08-13T10:18:37.347Z,2.47
2018-08-13T10:21:35.521Z,1.80
2018-08-13T10:24:34.660Z,2.10
2018-08-13T10:27:32.507Z,1.87
2018-08-13T10:30:31.724Z,1.60
2018-08-13T10:33:29.900Z,2.10
2018-08-13T10:36:27.343Z,1.80
2018-08-13T10:39:25.268Z,2.10
2018-08-13T10:42:22.844Z,2.23
2018-08-13T10:45:21.071Z,2.20
2018-08-13T10:48:19.139Z,2.40
2018-08-13T10:51:16.424Z,2.30
2018-08-13T10:54:14.355Z,2.73
2018-08-13T10:57:11.699Z,2.50
2018-08-13T11:00:09.695Z,2.43
2018-08-13T11:03:07.870Z,2.50
2018-08-13T11:06:05.663Z,2.43
2018-08-13T11:09:03.542Z,2.33
2018-08-13T11:12:00.681Z,2.70
2018-08-13T11:14:57.791Z,2.20
2018-08-13T11:17:55.077Z,1.87
2018-08-13T11:20:53.059Z,2.30
2018-08-13T11:23:51.101Z,1.80
2018-08-13T11:26:48.816Z,1.90
2018-08-13T11:29:46.966Z,1.70
2018-08-13T11:32:44.246Z,1.93
2018-08-13T11:35:42.215Z,2.03
2018-08-13T11:38:40.057Z,2.20
2018-08-13T11:41:36.928Z,1.80
2018-08-13T11:44:33.820Z,2.20
2018-08-13T11:47:30.924Z,2.30
2018-08-13T11:50:30.150Z,2.10
2018-08-13T11:53:27.984Z,1.90
2018-08-13T11:56:25.479Z,1.70
2018-08-13T11:59:22.763Z,1.80
2018-08-13T12:02:20.207Z,2.20
2018-08-13T12:05:20.305Z,2.03
2018-08-13T12:08:18.300Z,1.90
2018-08-13T12:11:15.475Z,2.10
2018-08-13T12:14:13.358Z,1.90
2018-08-13T12:17:10.916Z,1.80
2018-08-13T12:20:08.952Z,2.40
2018-08-13T12:23:06.916Z,2.30
2018-08-13T12:26:04.401Z,2.03
2018-08-13T12:29:01.638Z,2.00
2018-08-13T12:31:59.355Z,2.10
2018-08-13T12:34:56.527Z,2.30
2018-08-13T12:37:53.913Z,1.90
2018-08-13T12:40:51.871Z,2.30
2018-08-13T12:43:49.886Z,2.30
2018-08-13T12:46:47.955Z,2.10
2018-08-13T12:49:45.240Z,2.27
2018-08-13T12:52:43.191Z,2.60
2018-08-13T12:55:41.164Z,2.53
2018-08-13T12:58:39.175Z,2.43
2018-08-13T13:01:36.419Z,2.43
2018-08-13T13:04:34.464Z,1.80
2018-08-13T13:07:32.461Z,1.33
2018-08-13T13:10:30.639Z,1.77
2018-08-13T13:13:28.703Z,1.50
2018-08-13T13:16:25.568Z,1.63
2018-08-13T13:19:23.586Z,1.90
2018-08-13T13:22:21.015Z,1.70
2018-08-13T13:25:18.461Z,1.67
2018-08-13T13:28:16.548Z,1.63
2018-08-13T13:31:13.836Z,1.77
2018-08-13T13:34:11.307Z,1.40
2018-08-13T13:37:09.219Z,1.40
2018-08-13T13:40:07.131Z,1.40
2018-08-13T13:43:04.886Z,2.20
2018-08-13T13:46:02.894Z,2.27
2018-08-13T13:49:01.024Z,1.53
2018-08-13T13:51:58.987Z,1.27
2018-08-13T13:54:56.718Z,1.47
2018-08-13T13:57:54.643Z,1.40
2018-08-13T14:00:51.900Z,1.43
2018-08-13T14:03:49.986Z,1.63
2018-08-13T14:06:47.099Z,1.50
2018-08-13T14:09:52.897Z,1.40
2018-08-13T14:15:55.695Z,1.67
2018-08-13T14:18:53.960Z,1.63
2018-08-13T14:21:51.227Z,2.10
2018-08-13T14:24:48.604Z,1.70
2018-08-13T14:27:46.613Z,1.63
2018-08-13T14:30:44.876Z,1.80
2018-08-13T14:33:43.047Z,1.83
2018-08-13T14:36:40.384Z,2.17
2018-08-13T14:39:37.865Z,2.53
2018-08-13T14:42:35.069Z,2.30
2018-08-13T14:45:34.130Z,2.50
2018-08-13T14:48:31.652Z,2.63
2018-08-13T14:51:31.585Z,2.77
2018-08-13T14:54:29.560Z,2.80
2018-08-13T14:57:26.657Z,2.70
2018-08-13T15:00:37.419Z,3.40
2018-08-13T15:03:34.653Z,2.30
2018-08-13T15:06:32.204Z,2.20
2018-08-13T15:09:32.230Z,2.37
2018-08-13T15:12:29.554Z,2.13
2018-08-13T15:15:28.054Z,2.17
2018-08-13T15:18:26.054Z,2.30
2018-08-13T15:21:24.339Z,2.80
2018-08-13T15:24:21.853Z,3.20
2018-08-13T15:27:19.684Z,3.30
2018-08-13T15:30:18.756Z,3.57
2018-08-13T15:33:16.744Z,3.87
2018-08-13T15:36:14.286Z,4.10
2018-08-13T15:39:11.462Z,4.33
2018-08-13T15:42:09.190Z,3.90
2018-08-13T15:45:07.231Z,4.23
2018-08-13T15:48:05.220Z,4.60
2018-08-13T15:51:03.150Z,4.47
2018-08-13T15:54:00.975Z,4.60
2018-08-13T15:56:58.185Z,4.47
2018-08-13T15:59:55.401Z,5.27
2018-08-13T16:02:53.395Z,5.20
2018-08-13T16:05:51.451Z,4.30
2018-08-13T16:08:48.784Z,5.20
2018-08-13T16:11:47.113Z,4.50
2018-08-13T16:14:44.980Z,4.50
2018-08-13T16:17:44.063Z,4.33
2018-08-13T16:20:41.449Z,3.80
2018-08-13T16:23:38.669Z,4.17
2018-08-13T16:26:36.653Z,3.80
2018-08-13T16:29:34.376Z,3.30
2018-08-13T16:32:32.210Z,3.30
2018-08-13T16:35:30.140Z,3.53
2018-08-13T16:38:28.173Z,3.33
2018-08-13T16:41:25.768Z,3.47
2018-08-13T16:44:23.835Z,3.70
2018-08-13T16:47:21.689Z,3.77
2018-08-13T16:50:23.683Z,3.70
2018-08-13T16:53:20.880Z,3.20
2018-08-13T16:56:18.346Z,3.40
2018-08-13T16:59:16.117Z,3.40
2018-08-13T17:02:13.816Z,3.50
2018-08-13T17:05:11.062Z,3.30
2018-08-13T17:08:08.313Z,3.93
2018-08-13T17:11:05.680Z,3.73
2018-08-13T17:14:02.922Z,3.60
2018-08-13T17:17:02.426Z,3.30
2018-08-13T17:20:00.080Z,4.53
2018-08-13T17:22:57.723Z,4.50
2018-08-13T17:25:54.961Z,5.33
2018-08-13T17:28:52.194Z,4.90
2018-08-13T17:31:50.172Z,5.27
2018-08-13T17:34:47.424Z,5.00
2018-08-13T17:37:46.317Z,4.97
2018-08-13T17:40:45.402Z,4.10
2018-08-13T17:43:43.572Z,3.50
2018-08-13T17:46:41.700Z,2.97
2018-08-13T17:49:39.726Z,3.73
2018-08-13T17:52:36.966Z,3.80
2018-08-13T17:55:33.943Z,3.70
2018-08-13T17:58:31.065Z,4.00
2018-08-13T18:01:28.245Z,4.17
2018-08-13T18:04:25.366Z,4.47
2018-08-13T18:07:22.808Z,4.27
2018-08-13T18:10:21.718Z,4.80
2018-08-13T18:13:21.988Z,5.30
2018-08-13T18:16:19.509Z,6.10
2018-08-13T18:19:17.342Z,6.33
2018-08-13T18:22:15.333Z,6.27
2018-08-13T18:25:14.251Z,5.67
2018-08-13T18:28:12.317Z,6.13
2018-08-13T18:31:10.384Z,6.13
2018-08-13T18:34:07.243Z,6.27
2018-08-13T18:37:04.644Z,6.40
2018-08-13T18:40:01.883Z,6.50
2018-08-13T18:42:59.167Z,6.30
2018-08-13T18:45:56.285Z,6.27
2018-08-13T18:48:53.757Z,6.87
2018-08-13T18:51:51.755Z,7.20
2018-08-13T18:54:49.044Z,7.13
2018-08-13T18:57:46.508Z,7.10
2018-08-13T19:00:44.712Z,8.07
2018-08-13T19:03:42.719Z,8.30
2018-08-13T19:06:39.844Z,9.83
2018-08-13T19:09:36.964Z,9.13
2018-08-13T19:12:34.854Z,9.57
2018-08-13T19:15:35.180Z,9.57
2018-08-13T19:18:33.190Z,10.33
2018-08-13T19:21:31.269Z,9.80
2018-08-13T19:24:29.300Z,9.67
2018-08-13T19:27:27.179Z,10.90
2018-08-13T19:30:27.254Z,10.87
2018-08-13T19:33:24.847Z,9.63
2018-08-13T19:36:22.804Z,9.87
2018-08-13T19:39:21.952Z,10.20
2018-08-13T19:42:19.822Z,9.63
2018-08-13T19:45:17.499Z,11.00
2018-08-13T19:48:15.565Z,11.47
2018-08-13T19:51:12.721Z,11.27
2018-08-13T19:54:09.988Z,11.60
2018-08-13T19:57:08.251Z,11.33
2018-08-13T20:00:06.349Z,11.70
2018-08-13T20:03:04.384Z,12.07
2018-08-13T20:06:02.420Z,12.87
2018-08-13T20:08:59.726Z,12.83
2018-08-13T20:12:01.749Z,14.53
2018-08-13T20:14:59.804Z,14.40
2018-08-13T20:17:57.880Z,14.63
2018-08-13T20:20:55.816Z,14.53
2018-08-13T20:23:53.021Z,13.40
2018-08-13T20:26:50.965Z,14.40
2018-08-13T20:29:48.948Z,14.63
2018-08-13T20:32:46.945Z,15.03
2018-08-13T20:35:44.231Z,14.87
2018-08-13T20:38:42.078Z,14.23
2018-08-13T20:41:39.489Z,14.43
2018-08-13T20:44:37.594Z,14.77
2018-08-13T20:47:35.483Z,14.27
2018-08-13T20:50:36.892Z,13.27
2018-08-13T20:53:34.180Z,14.17
2018-08-13T20:56:31.468Z,13.53
2018-08-13T20:59:29.441Z,15.07
2018-08-13T21:02:33.703Z,15.27
2018-08-13T21:05:31.561Z,14.80
2018-08-13T21:08:29.044Z,15.50
2018-08-13T21:11:27.007Z,14.53
2018-08-13T21:14:24.971Z,16.00
2018-08-13T21:17:22.309Z,16.13
2018-08-13T21:20:19.343Z,15.60
2018-08-13T21:23:16.649Z,18.40
2018-08-13T21:26:13.804Z,16.47
2018-08-13T21:29:10.947Z,18.00
2018-08-13T21:32:08.330Z,17.53
2018-08-13T21:35:06.280Z,17.13
2018-08-13T21:38:04.279Z,17.40
2018-08-13T21:41:01.483Z,16.57
2018-08-13T21:43:59.504Z,15.50
2018-08-13T21:46:56.949Z,15.20
2018-08-13T21:49:54.131Z,15.37
2018-08-13T21:52:51.781Z,14.90
2018-08-13T21:55:49.596Z,14.13
2018-08-13T21:58:47.748Z,13.17
2018-08-13T22:01:51.548Z,13.67
2018-08-13T22:04:49.615Z,14.20
2018-08-13T22:07:46.929Z,13.13
2018-08-13T22:10:44.955Z,13.73
2018-08-13T22:13:42.039Z,13.77
2018-08-13T22:16:40.036Z,13.13
2018-08-13T22:19:38.134Z,12.80
2018-08-13T22:22:35.008Z,12.40
2018-08-13T22:25:36.207Z,12.10
2018-08-13T22:28:34.327Z,13.80
2018-08-13T22:31:31.615Z,12.97
2018-08-13T22:34:28.667Z,12.93
2018-08-13T22:37:26.418Z,11.80
2018-08-13T22:40:26.746Z,11.63
2018-08-13T22:43:23.974Z,11.33
2018-08-13T22:46:21.369Z,12.83
2018-08-13T22:49:19.542Z,11.93
2018-08-13T22:52:17.621Z,12.53
2018-08-13T22:55:15.583Z,12.33
2018-08-13T22:58:13.517Z,14.17
2018-08-13T23:01:10.757Z,14.10
2018-08-13T23:04:08.876Z,14.37
2018-08-13T23:07:06.137Z,13.63
2018-08-13T23:10:03.523Z,13.77
2018-08-13T23:13:01.073Z,15.03
2018-08-13T23:15:58.944Z,14.13
2018-08-13T23:18:56.363Z,14.13
2018-08-13T23:21:53.962Z,14.50
2018-08-13T23:24:51.880Z,13.80
2018-08-13T23:27:49.754Z,13.47
2018-08-13T23:30:47.739Z,13.10
2018-08-13T23:33:45.599Z,13.07
2018-08-13T23:36:43.618Z,13.00
2018-08-13T23:39:41.590Z,12.37
2018-08-13T23:42:39.576Z,13.57
2018-08-13T23:45:39.795Z,13.60
2018-08-13T23:48:37.856Z,13.77
2018-08-13T23:51:35.684Z,14.40
2018-08-13T23:54:33.614Z,14.10
2018-08-13T23:57:31.499Z,14.23
